Time;durP1;ratioP1;P1;durP2;ratioP2;P2;SDS_P1;SDS_P2;PMS_P1;PMS_P2;Temp;Humidity;BMP_temperature;BMP_pressure;BME280_temperature;BME280_humidity;BME280_pressure;Samples;Min_cycle;Max_cycle;Signal;HPM_P1;HPM_P2
2021/08/23 00:02:19;;;;;;;35.08;23.77;;;;;;;;;;4357051;32;20163;-76
2021/08/23 00:04:45;;;;;;;36.72;25.37;;;;;;;;;;4357162;32;20175;-76
2021/08/23 00:07:10;;;;;;;42.20;26.60;;;;;;;;;;4356984;32;20163;-76
2021/08/23 00:09:46;;;;;;;33.10;23.45;;;;;;;;;;4356776;33;20250;-77
2021/08/23 00:12:12;;;;;;;35.05;25.25;;;;;;;;;;4356979;32;20168;-77
2021/08/23 00:14:37;;;;;;;45.85;28.45;;;;;;;;;;4356812;32;20163;-77
2021/08/23 00:17:02;;;;;;;40.40;26.67;;;;;;;;;;4344157;33;20218;-76
2021/08/23 00:19:28;;;;;;;38.33;26.48;;;;;;;;;;4344188;33;20168;-77
2021/08/23 00:22:01;;;;;;;38.45;25.45;;;;;;;;;;4344335;33;20168;-76
2021/08/23 00:24:26;;;;;;;45.28;28.30;;;;;;;;;;4356699;33;20211;-76
2021/08/23 00:26:56;;;;;;;42.47;27.70;;;;;;;;;;4344341;33;20205;-76
2021/08/23 00:29:21;;;;;;;44.85;27.27;;;;;;;;;;4356771;32;20175;-77
2021/08/23 00:31:47;;;;;;;41.47;27.00;;;;;;;;;;4357093;32;20187;-77
2021/08/23 00:34:12;;;;;;;38.70;27.50;;;;;;;;;;4356823;32;20237;-77
2021/08/23 00:36:38;;;;;;;39.45;27.35;;;;;;;;;;4356845;32;20185;-77
2021/08/23 00:39:04;;;;;;;39.33;26.55;;;;;;;;;;4356415;32;20533;-77
2021/08/23 00:41:32;;;;;;;38.33;26.55;;;;;;;;;;4344074;33;20197;-77
2021/08/23 00:43:57;;;;;;;40.63;29.45;;;;;;;;;;4356479;32;20238;-77
2021/08/23 00:46:22;;;;;;;39.20;27.65;;;;;;;;;;4356451;33;20577;-77
2021/08/23 00:48:47;;;;;;;40.45;28.05;;;;;;;;;;4356677;33;20205;-77
2021/08/23 00:51:13;;;;;;;39.67;27.05;;;;;;;;;;4356690;33;20168;-77
2021/08/23 00:53:39;;;;;;;42.00;28.85;;;;;;;;;;4345952;33;20140;-77
2021/08/23 00:56:04;;;;;;;37.78;25.48;;;;;;;;;;4356425;33;20489;-77
2021/08/23 00:58:30;;;;;;;37.10;26.23;;;;;;;;;;4356761;32;20226;-77
2021/08/23 01:01:02;;;;;;;37.88;26.90;;;;;;;;;;4356624;32;20619;-77
2021/08/23 01:03:30;;;;;;;33.25;24.42;;;;;;;;;;4356344;33;20258;-77
2021/08/23 01:05:56;;;;;;;34.83;25.48;;;;;;;;;;4356762;33;20167;-77
2021/08/23 01:09:06;;;;;;;38.50;25.60;;;;;;;;;;4356361;33;20186;-77
2021/08/23 01:11:34;;;;;;;32.78;21.90;;;;;;;;;;4328773;33;20159;-77
2021/08/23 01:14:05;;;;;;;35.88;25.85;;;;;;;;;;4316412;33;20464;-77
2021/08/23 01:16:30;;;;;;;41.00;26.60;;;;;;;;;;4331482;33;20175;-77
2021/08/23 01:18:55;;;;;;;34.47;24.52;;;;;;;;;;4345235;33;20591;-77
2021/08/23 01:21:25;;;;;;;35.28;24.33;;;;;;;;;;4344113;33;20159;-77
2021/08/23 01:23:52;;;;;;;34.33;24.60;;;;;;;;;;4345035;33;20182;-77
2021/08/23 01:26:28;;;;;;;32.33;22.70;;;;;;;;;;4344367;33;20225;-77
2021/08/23 01:29:21;;;;;;;34.28;23.23;;;;;;;;;;4344617;33;20194;-78
2021/08/23 01:31:54;;;;;;;31.92;21.55;;;;;;;;;;4347006;33;20312;-77
2021/08/23 01:34:23;;;;;;;28.73;21.80;;;;;;;;;;4348215;32;20210;-78
2021/08/23 01:37:04;;;;;;;28.12;20.60;;;;;;;;;;4348339;33;20162;-77
2021/08/23 01:39:46;;;;;;;29.10;21.12;;;;;;;;;;4359310;33;20201;-78
2021/08/23 01:42:11;;;;;;;30.98;22.27;;;;;;;;;;4359344;32;20629;-77
2021/08/23 01:44:50;;;;;;;27.40;21.80;;;;;;;;;;4347738;33;20155;-77
2021/08/23 01:47:15;;;;;;;27.92;19.90;;;;;;;;;;4350025;32;20236;-77
2021/08/23 01:49:50;;;;;;;29.77;21.05;;;;;;;;;;4348900;33;20604;-78
2021/08/23 01:52:15;;;;;;;30.05;20.52;;;;;;;;;;4350504;32;20190;-78
2021/08/23 01:54:42;;;;;;;28.17;20.02;;;;;;;;;;4348457;32;20490;-78
2021/08/23 01:57:31;;;;;;;26.95;19.92;;;;;;;;;;4362625;32;20201;-78
2021/08/23 02:02:55;;;;;;;30.92;20.98;;;;;;;;;;4354825;33;20159;-78
2021/08/23 02:05:20;;;;;;;28.08;19.58;;;;;;;;;;4349014;33;20682;-78
2021/08/23 02:08:08;;;;;;;26.45;18.05;;;;;;;;;;4348576;33;20202;-77
2021/08/23 02:10:36;;;;;;;30.95;19.90;;;;;;;;;;4348626;33;20150;-78
2021/08/23 02:13:03;;;;;;;32.45;21.50;;;;;;;;;;4348630;32;20152;-77
2021/08/23 02:15:28;;;;;;;27.73;19.60;;;;;;;;;;4348994;33;20147;-77
2021/08/23 02:17:54;;;;;;;28.25;19.48;;;;;;;;;;4348513;33;20177;-77
2021/08/23 02:20:19;;;;;;;28.00;18.95;;;;;;;;;;4348953;33;20162;-78
2021/08/23 02:22:46;;;;;;;27.27;19.75;;;;;;;;;;4349125;33;20684;-77
2021/08/23 02:25:11;;;;;;;25.85;18.52;;;;;;;;;;4362514;32;20132;-78
2021/08/23 02:27:39;;;;;;;27.73;18.20;;;;;;;;;;4348803;33;20276;-77
2021/08/23 02:30:05;;;;;;;24.87;16.90;;;;;;;;;;4348399;33;20155;-77
2021/08/23 02:32:30;;;;;;;23.12;16.08;;;;;;;;;;4348480;33;20155;-77
2021/08/23 02:34:55;;;;;;;21.95;15.98;;;;;;;;;;4348314;33;20230;-77
2021/08/23 02:37:21;;;;;;;23.23;16.20;;;;;;;;;;4349029;33;20230;-77
2021/08/23 02:39:46;;;;;;;22.92;15.77;;;;;;;;;;4348032;33;20702;-77
2021/08/23 02:42:47;;;;;;;27.02;16.48;;;;;;;;;;4348728;33;20156;-77
2021/08/23 02:45:40;;;;;;;21.42;15.85;;;;;;;;;;4359118;33;20185;-77
2021/08/23 02:48:12;;;;;;;19.77;14.25;;;;;;;;;;4335775;32;20290;-77
2021/08/23 02:50:37;;;;;;;19.25;14.35;;;;;;;;;;4348160;33;20202;-77
2021/08/23 02:53:35;;;;;;;;;;;;;;;;;;;;;
2021/08/23 02:56:20;;;;;;;19.08;13.23;;;;;;;;;;4359010;33;20190;-76
2021/08/23 02:58:53;;;;;;;16.12;12.15;;;;;;;;;;4360736;32;20158;-77
2021/08/23 03:01:18;;;;;;;18.90;12.43;;;;;;;;;;4361665;32;20215;-77
2021/08/23 03:03:43;;;;;;;14.90;11.70;;;;;;;;;;4361598;33;20468;-77
2021/08/23 03:06:09;;;;;;;16.48;11.95;;;;;;;;;;4348261;33;20580;-77
2021/08/23 03:08:34;;;;;;;16.25;12.15;;;;;;;;;;4348034;33;20171;-77
2021/08/23 03:11:10;;;;;;;17.75;11.95;;;;;;;;;;4347737;33;20155;-78
2021/08/23 03:13:35;;;;;;;15.18;11.00;;;;;;;;;;4348654;33;20186;-77
2021/08/23 03:16:01;;;;;;;16.98;11.02;;;;;;;;;;4347239;33;20190;-77
2021/08/23 03:18:29;;;;;;;15.32;11.75;;;;;;;;;;4348690;32;20197;-76
2021/08/23 03:20:54;;;;;;;17.12;12.05;;;;;;;;;;4361305;32;20165;-77
2021/08/23 03:23:19;;;;;;;16.67;11.45;;;;;;;;;;4347525;33;20158;-77
2021/08/23 03:25:45;;;;;;;14.05;10.90;;;;;;;;;;4347520;32;20217;-77
2021/08/23 03:28:11;;;;;;;16.02;11.23;;;;;;;;;;4347818;33;20162;-77
2021/08/23 03:30:40;;;;;;;15.85;10.77;;;;;;;;;;4348010;33;20213;-77
2021/08/23 03:33:08;;;;;;;17.87;11.40;;;;;;;;;;4347767;33;20163;-77
2021/08/23 03:35:36;;;;;;;14.98;10.63;;;;;;;;;;4347493;33;20151;-78
2021/08/23 03:38:02;;;;;;;16.00;11.90;;;;;;;;;;4360836;32;20135;-78
2021/08/23 03:40:28;;;;;;;18.05;11.30;;;;;;;;;;4347418;32;20155;-78
2021/08/23 03:43:07;;;;;;;15.60;11.05;;;;;;;;;;4347340;33;20159;-79
2021/08/23 03:45:45;;;;;;;17.60;11.25;;;;;;;;;;4347320;33;20155;-78
2021/08/23 03:48:18;;;;;;;14.52;10.73;;;;;;;;;;4360922;32;20245;-78
2021/08/23 03:50:44;;;;;;;14.25;10.35;;;;;;;;;;4359937;32;20127;-77
2021/08/23 03:53:17;;;;;;;15.57;10.88;;;;;;;;;;4346687;33;20490;-77
2021/08/23 03:55:42;;;;;;;12.68;9.45;;;;;;;;;;4347387;33;20589;-77
2021/08/23 03:58:08;;;;;;;13.70;9.60;;;;;;;;;;4347486;33;20181;-77
2021/08/23 04:00:33;;;;;;;14.35;9.20;;;;;;;;;;4347674;33;20155;-77
2021/08/23 04:02:58;;;;;;;13.48;8.15;;;;;;;;;;4346973;33;20159;-77
2021/08/23 04:05:23;;;;;;;10.30;7.57;;;;;;;;;;4347777;33;20159;-77
2021/08/23 04:08:05;;;;;;;12.57;7.20;;;;;;;;;;4347402;33;20170;-78
2021/08/23 04:10:38;;;;;;;9.80;6.75;;;;;;;;;;4358670;32;20185;-77
2021/08/23 04:13:03;;;;;;;9.43;5.68;;;;;;;;;;4346929;33;20171;-78
2021/08/23 04:15:29;;;;;;;11.38;6.20;;;;;;;;;;4346962;33;20167;-77
2021/08/23 04:18:00;;;;;;;10.43;5.68;;;;;;;;;;4347463;33;20154;-78
2021/08/23 04:20:26;;;;;;;8.73;5.10;;;;;;;;;;4346877;33;20227;-78
2021/08/23 04:22:51;;;;;;;7.82;5.05;;;;;;;;;;4347102;33;20151;-77
2021/08/23 04:25:16;;;;;;;8.63;5.15;;;;;;;;;;4347043;33;20513;-77
2021/08/23 04:28:05;;;;;;;7.95;4.95;;;;;;;;;;4347002;33;20224;-77
2021/08/23 04:30:30;;;;;;;9.70;5.03;;;;;;;;;;4346687;33;20533;-77
2021/08/23 04:33:22;;;;;;;9.13;4.87;;;;;;;;;;4346600;33;20159;-78
2021/08/23 04:35:47;;;;;;;9.82;4.82;;;;;;;;;;4345616;33;20206;-76
2021/08/23 04:38:13;;;;;;;9.88;4.75;;;;;;;;;;4346848;33;20221;-77
2021/08/23 04:40:38;;;;;;;10.27;4.85;;;;;;;;;;4346751;32;20475;-77
2021/08/23 04:43:06;;;;;;;8.10;4.50;;;;;;;;;;4346849;33;20585;-77
2021/08/23 04:45:34;;;;;;;8.70;5.12;;;;;;;;;;4346571;33;20205;-77
2021/08/23 04:48:02;;;;;;;9.93;5.07;;;;;;;;;;4344141;33;20523;-76
2021/08/23 04:50:33;;;;;;;11.98;4.95;;;;;;;;;;4344407;33;20233;-77
2021/08/23 04:52:58;;;;;;;6.22;4.22;;;;;;;;;;4344360;33;20613;-77
2021/08/23 04:55:24;;;;;;;9.25;4.18;;;;;;;;;;4344146;33;20214;-77
2021/08/23 04:57:51;;;;;;;7.45;4.20;;;;;;;;;;4344059;33;20564;-77
2021/08/23 05:00:18;;;;;;;9.70;4.15;;;;;;;;;;4344440;33;20335;-77
2021/08/23 05:02:50;;;;;;;8.20;4.18;;;;;;;;;;4346257;33;20470;-79
2021/08/23 05:05:20;;;;;;;9.38;3.83;;;;;;;;;;4349283;32;20253;-77
2021/08/23 05:10:18;;;;;;;7.87;4.15;;;;;;;;;;4347945;33;20186;-77
2021/08/23 05:12:43;;;;;;;8.02;4.05;;;;;;;;;;4347807;33;20182;-78
2021/08/23 05:15:18;;;;;;;8.43;4.25;;;;;;;;;;4347055;33;20548;-77
2021/08/23 05:17:43;;;;;;;10.70;4.28;;;;;;;;;;4347125;33;20162;-77
2021/08/23 05:20:11;;;;;;;12.50;3.75;;;;;;;;;;4347380;33;20239;-77
2021/08/23 05:22:41;;;;;;;7.70;3.87;;;;;;;;;;4346790;33;20623;-78
2021/08/23 05:25:15;;;;;;;10.75;4.05;;;;;;;;;;4360348;32;20182;-77
2021/08/23 05:27:41;;;;;;;9.23;4.05;;;;;;;;;;4347170;33;20218;-77
2021/08/23 05:30:06;;;;;;;8.40;3.65;;;;;;;;;;4346585;33;20194;-77
2021/08/23 05:32:32;;;;;;;10.35;4.00;;;;;;;;;;4346623;33;20581;-78
2021/08/23 05:34:57;;;;;;;8.68;4.50;;;;;;;;;;4346928;33;20615;-77
2021/08/23 05:37:43;;;;;;;7.53;3.85;;;;;;;;;;4346502;33;20163;-76
2021/08/23 05:40:19;;;;;;;7.20;3.95;;;;;;;;;;4346327;33;20182;-78
2021/08/23 05:42:45;;;;;;;9.85;3.78;;;;;;;;;;4346782;33;20175;-77
2021/08/23 05:45:10;;;;;;;12.25;4.18;;;;;;;;;;4346700;33;20650;-75
2021/08/23 05:47:46;;;;;;;;;;;;;;;;;;;;;
2021/08/23 05:50:24;;;;;;;8.32;3.87;;;;;;;;;;4362683;32;20174;-77
2021/08/23 05:52:51;;;;;;;7.80;4.00;;;;;;;;;;4348491;33;20167;-77
2021/08/23 05:55:17;;;;;;;9.30;4.00;;;;;;;;;;4361266;33;20523;-78
2021/08/23 05:57:45;;;;;;;7.85;3.40;;;;;;;;;;4361317;32;20196;-77
2021/08/23 06:00:13;;;;;;;8.80;3.75;;;;;;;;;;4361858;32;20226;-77
2021/08/23 06:02:39;;;;;;;8.50;4.25;;;;;;;;;;4361591;32;20209;-77
2021/08/23 06:05:05;;;;;;;7.43;3.72;;;;;;;;;;4362259;32;20135;-78
2021/08/23 06:07:34;;;;;;;11.27;3.78;;;;;;;;;;4360817;33;20264;-77
2021/08/23 06:09:59;;;;;;;8.13;3.60;;;;;;;;;;4361246;32;20217;-78
2021/08/23 06:12:25;;;;;;;5.95;3.45;;;;;;;;;;4361431;32;20151;-77
2021/08/23 06:14:50;;;;;;;8.80;3.78;;;;;;;;;;4360381;32;20198;-77
2021/08/23 06:17:15;;;;;;;7.78;3.35;;;;;;;;;;4355707;32;20158;-77
2021/08/23 06:19:43;;;;;;;5.78;3.58;;;;;;;;;;4358057;32;20230;-79
2021/08/23 06:22:08;;;;;;;6.35;3.30;;;;;;;;;;4348180;33;20182;-79
2021/08/23 06:24:37;;;;;;;7.18;3.78;;;;;;;;;;4360498;32;20159;-77
2021/08/23 06:27:07;;;;;;;5.32;3.40;;;;;;;;;;4358437;32;20151;-77
2021/08/23 06:29:33;;;;;;;6.68;3.22;;;;;;;;;;4358180;33;20183;-78
2021/08/23 06:32:02;;;;;;;5.95;3.05;;;;;;;;;;4346086;33;20230;-79
2021/08/23 06:34:28;;;;;;;8.25;3.40;;;;;;;;;;4358125;33;20225;-78
2021/08/23 06:36:53;;;;;;;8.55;3.15;;;;;;;;;;4345698;33;20492;-79
2021/08/23 06:39:18;;;;;;;9.00;3.05;;;;;;;;;;4364174;32;20159;-79
2021/08/23 06:41:43;;;;;;;5.68;2.90;;;;;;;;;;4362916;32;20197;-80
2021/08/23 06:44:12;;;;;;;5.70;2.60;;;;;;;;;;4358094;32;20160;-78
2021/08/23 06:46:40;;;;;;;6.78;2.72;;;;;;;;;;4342549;33;20220;-79
2021/08/23 06:49:05;;;;;;;6.22;2.90;;;;;;;;;;4348397;33;20197;-79
2021/08/23 06:51:31;;;;;;;4.85;2.97;;;;;;;;;;4338949;33;20179;-80
2021/08/23 06:53:56;;;;;;;6.70;2.83;;;;;;;;;;4357055;32;20178;-79
2021/08/23 06:56:21;;;;;;;7.87;2.92;;;;;;;;;;4343059;32;20166;-79
2021/08/23 06:58:50;;;;;;;7.45;2.72;;;;;;;;;;4360042;32;20199;-78
2021/08/23 07:01:15;;;;;;;11.18;2.65;;;;;;;;;;4347977;33;20152;-77
2021/08/23 07:03:40;;;;;;;6.60;3.30;;;;;;;;;;4360467;32;20151;-78
2021/08/23 07:06:06;;;;;;;9.25;2.62;;;;;;;;;;4360181;32;20573;-78
2021/08/23 07:08:32;;;;;;;7.82;2.50;;;;;;;;;;4361263;32;20504;-79
2021/08/23 07:11:06;;;;;;;5.68;2.37;;;;;;;;;;4360057;32;20178;-79
2021/08/23 07:13:41;;;;;;;5.03;2.60;;;;;;;;;;4360510;32;20564;-79
2021/08/23 07:16:06;;;;;;;9.30;2.65;;;;;;;;;;4360519;32;20208;-78
2021/08/23 07:18:47;;;;;;;6.45;2.30;;;;;;;;;;4359564;33;20493;-78
2021/08/23 07:21:13;;;;;;;4.65;2.40;;;;;;;;;;4360256;32;20171;-78
2021/08/23 07:23:38;;;;;;;7.18;3.33;;;;;;;;;;4360496;32;20205;-78
2021/08/23 07:26:12;;;;;;;5.68;2.50;;;;;;;;;;4346540;33;20186;-79
2021/08/23 07:28:38;;;;;;;4.68;2.60;;;;;;;;;;4348096;33;20594;-78
2021/08/23 07:31:03;;;;;;;5.65;2.35;;;;;;;;;;4359640;32;20174;-78
2021/08/23 07:33:28;;;;;;;6.70;2.40;;;;;;;;;;4359570;32;20167;-78
2021/08/23 07:35:57;;;;;;;8.52;2.60;;;;;;;;;;4359803;32;20557;-78
2021/08/23 07:38:23;;;;;;;7.25;2.40;;;;;;;;;;4347215;33;20168;-77
2021/08/23 07:40:50;;;;;;;6.43;2.90;;;;;;;;;;4360465;32;20505;-78
2021/08/23 07:43:16;;;;;;;4.62;2.33;;;;;;;;;;4371590;32;20155;-78
2021/08/23 07:45:41;;;;;;;5.72;2.53;;;;;;;;;;4355232;32;20611;-78
2021/08/23 07:48:11;;;;;;;8.27;2.55;;;;;;;;;;4360547;32;20155;-77
2021/08/23 07:50:37;;;;;;;4.28;2.37;;;;;;;;;;4368887;32;20197;-78
2021/08/23 07:53:03;;;;;;;5.10;2.65;;;;;;;;;;4359380;33;20148;-78
2021/08/23 07:55:29;;;;;;;7.75;2.37;;;;;;;;;;4371250;32;20268;-80
2021/08/23 07:57:54;;;;;;;7.37;2.60;;;;;;;;;;4359824;32;20593;-78
2021/08/23 08:00:20;;;;;;;7.00;2.60;;;;;;;;;;4351326;32;20589;-78
2021/08/23 08:02:47;;;;;;;5.35;3.05;;;;;;;;;;4359323;32;20167;-80
2021/08/23 08:05:18;;;;;;;4.97;2.40;;;;;;;;;;4347041;33;20151;-78
2021/08/23 08:07:45;;;;;;;7.53;3.47;;;;;;;;;;4359340;33;20525;-76
2021/08/23 08:10:20;;;;;;;5.30;2.87;;;;;;;;;;4359101;33;20186;-79
2021/08/23 08:13:08;;;;;;;7.07;2.60;;;;;;;;;;4346093;33;20213;-79
2021/08/23 08:15:34;;;;;;;4.70;2.50;;;;;;;;;;4347105;33;20178;-79
2021/08/23 08:17:59;;;;;;;5.85;2.47;;;;;;;;;;4363696;32;20187;-78
2021/08/23 08:20:30;;;;;;;5.82;1.95;;;;;;;;;;4364274;32;20197;-79
2021/08/23 08:22:56;;;;;;;3.40;2.05;;;;;;;;;;4359263;32;20156;-78
2021/08/23 08:25:21;;;;;;;7.07;1.98;;;;;;;;;;4358904;32;20181;-78
2021/08/23 08:28:06;;;;;;;5.57;2.05;;;;;;;;;;4358808;32;20195;-79
2021/08/23 08:30:31;;;;;;;7.60;1.95;;;;;;;;;;4366125;32;20175;-79
2021/08/23 08:32:56;;;;;;;6.60;2.05;;;;;;;;;;4346461;33;20649;-78
2021/08/23 08:35:24;;;;;;;4.95;2.17;;;;;;;;;;4346876;33;20320;-79
2021/08/23 08:37:52;;;;;;;3.08;1.85;;;;;;;;;;4346123;33;20186;-78
2021/08/23 08:40:27;;;;;;;4.12;1.70;;;;;;;;;;4346534;33;20202;-79
2021/08/23 08:42:52;;;;;;;7.25;2.10;;;;;;;;;;4347289;33;20186;-78
2021/08/23 08:45:27;;;;;;;7.47;2.10;;;;;;;;;;4346464;33;20522;-78
2021/08/23 08:53:14;;;;;;;6.50;1.92;;;;;;;;;;4359844;32;20182;-81
2021/08/23 08:55:45;;;;;;;4.55;2.03;;;;;;;;;;4346354;33;20220;-79
2021/08/23 08:58:11;;;;;;;4.65;1.80;;;;;;;;;;4346948;33;20492;-79
2021/08/23 09:00:43;;;;;;;5.47;1.90;;;;;;;;;;4359028;33;20163;-79
2021/08/23 09:06:31;;;;;;;4.03;1.80;;;;;;;;;;4346177;32;20259;-79
2021/08/23 09:09:11;;;;;;;;;;;;;;;;;;;;;
2021/08/23 09:17:50;;;;;;;3.25;2.20;;;;;;;;;;4360082;33;20485;-78
2021/08/23 09:20:15;;;;;;;4.32;1.83;;;;;;;;;;4359129;33;20155;-80
2021/08/23 09:22:50;;;;;;;6.12;1.67;;;;;;;;;;4346383;33;20616;-80
2021/08/23 09:25:15;;;;;;;4.55;1.75;;;;;;;;;;4346741;33;20143;-80
2021/08/23 09:27:43;;;;;;;4.78;1.60;;;;;;;;;;4346531;33;20509;-79
2021/08/23 09:30:11;;;;;;;3.65;1.80;;;;;;;;;;4358661;33;20177;-78
2021/08/23 09:32:58;;;;;;;7.30;1.70;;;;;;;;;;4358551;33;20186;-79
2021/08/23 09:35:36;;;;;;;5.37;1.70;;;;;;;;;;4346719;33;20156;-79
2021/08/23 09:38:12;;;;;;;3.17;1.83;;;;;;;;;;4346308;33;20595;-80
2021/08/23 09:40:37;;;;;;;3.67;1.90;;;;;;;;;;4346257;33;20237;-79
2021/08/23 09:43:10;;;;;;;3.10;1.60;;;;;;;;;;4358689;32;20656;-79
2021/08/23 09:45:36;;;;;;;3.87;1.87;;;;;;;;;;4359434;33;20156;-80
2021/08/23 09:48:09;;;;;;;6.05;1.80;;;;;;;;;;4360530;33;20166;-79
2021/08/23 09:50:42;;;;;;;4.78;1.80;;;;;;;;;;4348103;33;20677;-79
2021/08/23 09:53:13;;;;;;;3.45;1.65;;;;;;;;;;4360160;33;20195;-79
2021/08/23 09:55:39;;;;;;;4.47;1.80;;;;;;;;;;4348863;33;20204;-79
2021/08/23 09:58:06;;;;;;;5.45;1.85;;;;;;;;;;4361104;32;20171;-79
2021/08/23 10:00:31;;;;;;;4.87;2.10;;;;;;;;;;4361143;32;20155;-79
2021/08/23 10:02:58;;;;;;;6.22;1.80;;;;;;;;;;4348735;33;20159;-79
2021/08/23 10:05:23;;;;;;;6.37;1.80;;;;;;;;;;4360704;32;20182;-81
2021/08/23 10:07:49;;;;;;;6.70;1.90;;;;;;;;;;4348957;33;20155;-80
2021/08/23 10:10:14;;;;;;;2.92;1.50;;;;;;;;;;4348543;33;20526;-79
2021/08/23 10:12:41;;;;;;;4.20;1.70;;;;;;;;;;4348589;33;20190;-79
2021/08/23 10:15:07;;;;;;;3.58;1.60;;;;;;;;;;4349121;33;20569;-79
2021/08/23 10:17:37;;;;;;;4.03;1.45;;;;;;;;;;4348549;33;20151;-80
2021/08/23 10:20:03;;;;;;;3.08;1.62;;;;;;;;;;4348364;33;20201;-79
2021/08/23 10:22:29;;;;;;;2.67;1.70;;;;;;;;;;4348203;33;20175;-79
2021/08/23 10:24:55;;;;;;;5.68;1.70;;;;;;;;;;4348053;33;20178;-80
2021/08/23 10:27:23;;;;;;;4.53;1.58;;;;;;;;;;4360857;32;20150;-80
2021/08/23 10:29:54;;;;;;;3.67;1.60;;;;;;;;;;4348655;33;20273;-80
2021/08/23 10:32:20;;;;;;;3.70;1.87;;;;;;;;;;4349159;33;20201;-80
2021/08/23 10:34:45;;;;;;;4.05;1.50;;;;;;;;;;4360530;32;20155;-79
2021/08/23 10:37:21;;;;;;;3.45;1.73;;;;;;;;;;4343985;33;20174;-80
2021/08/23 10:39:46;;;;;;;4.78;1.50;;;;;;;;;;4333694;33;20159;-80
2021/08/23 10:42:13;;;;;;;4.78;1.58;;;;;;;;;;4333408;33;20178;-80
2021/08/23 10:44:38;;;;;;;4.05;2.03;;;;;;;;;;4333417;33;20155;-79
2021/08/23 10:47:05;;;;;;;6.68;2.10;;;;;;;;;;4332658;33;20198;-78
2021/08/23 10:49:37;;;;;;;5.53;2.22;;;;;;;;;;4333765;33;20151;-80
2021/08/23 10:52:04;;;;;;;4.65;1.70;;;;;;;;;;4333636;33;20171;-80
2021/08/23 10:54:40;;;;;;;4.62;1.80;;;;;;;;;;4333172;33;20202;-80
2021/08/23 10:57:15;;;;;;;2.90;1.37;;;;;;;;;;4333795;33;20267;-80
2021/08/23 10:59:45;;;;;;;6.20;1.73;;;;;;;;;;4334265;33;20167;-80
2021/08/23 11:02:20;;;;;;;4.55;1.70;;;;;;;;;;4335312;33;20160;-80
2021/08/23 11:04:56;;;;;;;6.30;1.60;;;;;;;;;;4352438;33;20240;-80
2021/08/23 11:07:28;;;;;;;4.65;1.83;;;;;;;;;;4357322;32;20220;-80
2021/08/23 11:10:01;;;;;;;3.62;1.50;;;;;;;;;;4353246;32;20224;-80
2021/08/23 11:12:30;;;;;;;2.83;1.62;;;;;;;;;;4360238;33;20619;-81
2021/08/23 11:14:56;;;;;;;4.05;2.00;;;;;;;;;;4360034;32;20194;-80
2021/08/23 11:17:29;;;;;;;2.72;1.87;;;;;;;;;;4334650;33;20226;-80
2021/08/23 11:19:56;;;;;;;3.90;1.87;;;;;;;;;;4347621;33;20167;-79
2021/08/23 11:22:24;;;;;;;1.58;1.27;;;;;;;;;;4344027;33;20602;-82
2021/08/23 11:24:51;;;;;;;3.85;1.60;;;;;;;;;;4332713;33;20163;-81
2021/08/23 11:27:19;;;;;;;2.62;1.40;;;;;;;;;;4346673;33;20169;-80
2021/08/23 11:29:48;;;;;;;2.58;1.30;;;;;;;;;;4332949;33;20163;-80
2021/08/23 11:32:14;;;;;;;3.05;1.58;;;;;;;;;;4333186;33;20163;-80
2021/08/23 11:34:43;;;;;;;2.90;1.40;;;;;;;;;;4332628;33;20168;-80
2021/08/23 11:37:09;;;;;;;4.37;1.60;;;;;;;;;;4332847;33;20186;-80
2021/08/23 11:39:35;;;;;;;4.35;1.60;;;;;;;;;;4332576;33;20230;-81
2021/08/23 11:42:09;;;;;;;3.97;1.60;;;;;;;;;;4332701;33;20495;-81
2021/08/23 11:44:38;;;;;;;4.05;1.25;;;;;;;;;;4333073;33;20509;-82
2021/08/23 11:47:07;;;;;;;2.85;1.60;;;;;;;;;;4333295;33;20538;-82
2021/08/23 11:49:33;;;;;;;2.85;1.45;;;;;;;;;;4332785;33;20233;-83
2021/08/23 11:52:09;;;;;;;5.20;1.65;;;;;;;;;;4349097;33;20187;-81
2021/08/23 11:54:34;;;;;;;3.00;1.60;;;;;;;;;;4333157;33;20216;-81
2021/08/23 11:57:09;;;;;;;4.78;1.67;;;;;;;;;;4333917;33;20159;-78
2021/08/23 11:59:35;;;;;;;3.25;1.75;;;;;;;;;;4359443;33;20249;-83
2021/08/23 12:02:16;;;;;;;3.35;1.40;;;;;;;;;;4360532;32;20179;-82
2021/08/23 12:04:43;;;;;;;3.58;2.00;;;;;;;;;;4350319;32;20243;-83
2021/08/23 12:07:08;;;;;;;3.17;1.45;;;;;;;;;;4343542;33;20182;-82
2021/08/23 12:09:34;;;;;;;4.15;1.50;;;;;;;;;;4345342;33;20192;-82
2021/08/23 12:12:02;;;;;;;3.25;1.30;;;;;;;;;;4332225;33;20167;-82
2021/08/23 12:14:30;;;;;;;5.00;1.60;;;;;;;;;;4332467;33;20237;-83
2021/08/23 12:16:56;;;;;;;5.50;1.70;;;;;;;;;;4332977;33;20222;-82
2021/08/23 12:19:30;;;;;;;2.58;1.40;;;;;;;;;;4344724;33;20175;-82
2021/08/23 12:22:02;;;;;;;3.40;1.48;;;;;;;;;;4357074;32;20201;-84
2021/08/23 12:24:28;;;;;;;3.45;1.37;;;;;;;;;;4355614;32;20215;-82
2021/08/23 12:26:58;;;;;;;2.60;1.10;;;;;;;;;;4332870;33;20194;-83
2021/08/23 12:29:34;;;;;;;2.78;1.90;;;;;;;;;;4340926;33;20629;-82
2021/08/23 12:32:03;;;;;;;3.22;1.45;;;;;;;;;;4344620;33;20159;-82
2021/08/23 12:34:32;;;;;;;2.35;1.10;;;;;;;;;;4344871;33;20170;-83
2021/08/23 12:36:57;;;;;;;7.05;1.60;;;;;;;;;;4347345;33;20171;-83
2021/08/23 12:39:23;;;;;;;2.75;1.40;;;;;;;;;;4347728;33;20163;-82
2021/08/23 12:41:52;;;;;;;3.35;1.30;;;;;;;;;;4353690;32;20233;-83
2021/08/23 12:44:17;;;;;;;2.45;1.20;;;;;;;;;;4362264;33;20509;-83
2021/08/23 12:46:42;;;;;;;3.08;1.58;;;;;;;;;;4362768;33;20604;-84
2021/08/23 12:49:08;;;;;;;4.50;1.37;;;;;;;;;;4348673;33;20198;-84
2021/08/23 12:51:33;;;;;;;2.80;1.20;;;;;;;;;;4360219;33;20183;-84
2021/08/23 12:53:58;;;;;;;2.55;1.20;;;;;;;;;;4348135;33;20163;-84
2021/08/23 12:56:24;;;;;;;4.00;1.35;;;;;;;;;;4348246;33;20512;-82
2021/08/23 12:59:05;;;;;;;;;;;;;;;;;;;;;
2021/08/23 13:01:32;;;;;;;2.10;1.10;;;;;;;;;;4350898;33;20194;-84
2021/08/23 13:03:57;;;;;;;1.95;1.60;;;;;;;;;;4341631;33;20224;-83
2021/08/23 13:06:23;;;;;;;3.20;1.73;;;;;;;;;;4348324;33;20163;-82
2021/08/23 13:08:48;;;;;;;3.62;1.52;;;;;;;;;;4336604;33;20279;-83
2021/08/23 13:11:15;;;;;;;2.90;1.30;;;;;;;;;;4331670;33;20159;-83
2021/08/23 13:13:40;;;;;;;3.45;1.40;;;;;;;;;;4340466;33;20167;-83
2021/08/23 13:16:06;;;;;;;3.60;1.30;;;;;;;;;;4347279;33;20178;-84
2021/08/23 13:18:32;;;;;;;3.70;1.45;;;;;;;;;;4347576;33;20179;-84
2021/08/23 13:20:58;;;;;;;4.00;1.30;;;;;;;;;;4347293;33;20384;-80
2021/08/23 13:23:23;;;;;;;1.75;1.27;;;;;;;;;;4343651;33;20620;-84
2021/08/23 13:25:49;;;;;;;2.47;1.20;;;;;;;;;;4336056;33;20206;-84
2021/08/23 13:28:14;;;;;;;3.92;1.35;;;;;;;;;;4355396;32;20152;-85
2021/08/23 13:30:40;;;;;;;2.97;1.70;;;;;;;;;;4361987;32;20163;-85
2021/08/23 13:33:05;;;;;;;2.85;1.35;;;;;;;;;;4362587;32;20155;-85
2021/08/23 13:35:38;;;;;;;5.93;1.65;;;;;;;;;;4362488;32;20600;-85
2021/08/23 13:38:04;;;;;;;4.95;1.80;;;;;;;;;;4362208;32;20155;-85
2021/08/23 13:40:34;;;;;;;3.10;1.40;;;;;;;;;;4348183;33;20155;-85
2021/08/23 13:43:00;;;;;;;3.45;1.25;;;;;;;;;;4351114;32;20256;-84
2021/08/23 13:45:30;;;;;;;2.50;1.58;;;;;;;;;;4352181;32;20159;-82
2021/08/23 13:47:56;;;;;;;6.12;1.50;;;;;;;;;;4350111;33;20155;-83
2021/08/23 13:50:21;;;;;;;4.37;1.90;;;;;;;;;;4347885;33;20167;-82
2021/08/23 13:52:49;;;;;;;3.20;1.37;;;;;;;;;;4354754;33;20159;-84
2021/08/23 13:55:14;;;;;;;4.70;1.23;;;;;;;;;;4361976;32;20213;-85
2021/08/23 13:57:39;;;;;;;3.50;1.27;;;;;;;;;;4358010;32;20155;-83
2021/08/23 14:00:05;;;;;;;2.22;1.10;;;;;;;;;;4349911;33;20156;-85
2021/08/23 14:02:30;;;;;;;2.53;1.40;;;;;;;;;;4349680;33;20174;-86
2021/08/23 14:04:56;;;;;;;3.35;1.40;;;;;;;;;;4349121;33;20162;-84
2021/08/23 14:07:21;;;;;;;2.75;1.40;;;;;;;;;;4359180;32;20163;-85
2021/08/23 14:09:46;;;;;;;4.78;1.42;;;;;;;;;;4360012;32;20189;-83
2021/08/23 14:12:13;;;;;;;1.87;1.10;;;;;;;;;;4348902;33;20163;-83
2021/08/23 14:14:38;;;;;;;2.53;1.20;;;;;;;;;;4348074;33;20277;-82
2021/08/23 14:17:09;;;;;;;2.22;1.30;;;;;;;;;;4351859;33;20147;-83
2021/08/23 14:19:34;;;;;;;2.67;1.37;;;;;;;;;;4342359;33;20581;-85
2021/08/23 14:21:59;;;;;;;2.83;1.48;;;;;;;;;;4357596;32;20194;-84
2021/08/23 14:24:25;;;;;;;3.37;1.30;;;;;;;;;;4347134;33;20163;-83
2021/08/23 14:26:53;;;;;;;5.80;1.67;;;;;;;;;;4365183;32;20155;-83
2021/08/23 14:29:20;;;;;;;4.45;1.87;;;;;;;;;;4360962;32;20194;-82
2021/08/23 14:31:45;;;;;;;3.67;1.52;;;;;;;;;;4363237;32;20194;-85
2021/08/23 14:34:11;;;;;;;3.58;1.60;;;;;;;;;;4339683;32;20163;-83
2021/08/23 14:36:36;;;;;;;4.25;1.58;;;;;;;;;;4344503;33;20171;-83
2021/08/23 14:39:03;;;;;;;2.97;1.52;;;;;;;;;;4333493;33;20176;-82
2021/08/23 14:41:28;;;;;;;3.17;1.80;;;;;;;;;;4333339;33;20194;-83
2021/08/23 14:43:54;;;;;;;5.00;1.70;;;;;;;;;;4337336;33;20159;-80
2021/08/23 14:46:24;;;;;;;2.65;1.40;;;;;;;;;;4362050;32;20265;-83
2021/08/23 14:48:49;;;;;;;2.65;1.58;;;;;;;;;;4347028;33;20151;-84
2021/08/23 14:51:14;;;;;;;2.53;1.60;;;;;;;;;;4370836;32;20163;-83
2021/08/23 14:53:40;;;;;;;3.53;1.62;;;;;;;;;;4360828;32;20155;-84
2021/08/23 14:56:05;;;;;;;3.05;1.42;;;;;;;;;;4360590;32;20178;-84
2021/08/23 14:58:33;;;;;;;3.58;1.50;;;;;;;;;;4361486;32;20238;-82
2021/08/23 15:01:01;;;;;;;3.12;1.60;;;;;;;;;;4344744;33;20152;-83
2021/08/23 15:03:29;;;;;;;1.95;1.23;;;;;;;;;;4361840;32;20508;-83
2021/08/23 15:05:55;;;;;;;3.00;1.15;;;;;;;;;;4359901;33;20159;-85
2021/08/23 15:08:20;;;;;;;4.20;1.60;;;;;;;;;;4353287;32;20157;-84